createdAt,value
2018-06-22T00:00:42.044Z,41.60
2018-06-22T00:03:09.300Z,41.90
2018-06-22T00:05:36.591Z,41.80
2018-06-22T00:08:04.219Z,42.70
2018-06-22T00:10:31.467Z,42.60
2018-06-22T00:12:58.745Z,42.70
2018-06-22T00:15:25.987Z,42.50
2018-06-22T00:17:53.295Z,42.80
2018-06-22T00:20:20.615Z,43.00
2018-06-22T00:22:47.927Z,43.50
2018-06-22T00:25:15.277Z,44.10
2018-06-22T00:27:42.750Z,44.10
2018-06-22T00:30:10.049Z,44.60
2018-06-22T00:32:37.311Z,43.70
2018-06-22T00:35:04.912Z,44.60
2018-06-22T00:37:32.220Z,44.70
2018-06-22T00:39:59.484Z,43.90
2018-06-22T00:44:53.955Z,45.60
2018-06-22T00:47:21.216Z,46.00
2018-06-22T00:49:48.450Z,45.40
2018-06-22T00:52:15.703Z,45.80
2018-06-22T00:54:42.947Z,45.90
2018-06-22T00:57:10.244Z,46.30
2018-06-22T00:59:37.489Z,45.90
2018-06-22T01:04:32.073Z,46.40
2018-06-22T01:06:59.311Z,46.60
2018-06-22T01:09:26.612Z,45.70
2018-06-22T01:11:53.885Z,47.30
2018-06-22T01:14:21.156Z,45.40
2018-06-22T01:16:48.379Z,46.90
2018-06-22T01:19:15.631Z,47.20
2018-06-22T01:21:42.902Z,47.40
2018-06-22T01:24:10.242Z,47.80
2018-06-22T01:29:10.404Z,47.90
2018-06-22T01:36:32.196Z,48.30
2018-06-22T01:38:59.516Z,48.60
2018-06-22T01:41:26.772Z,48.20
2018-06-22T01:43:54.078Z,48.80
2018-06-22T01:46:21.571Z,48.70
2018-06-22T01:48:49.254Z,48.70
2018-06-22T01:51:16.531Z,48.80
2018-06-22T01:53:43.848Z,48.70
2018-06-22T01:56:11.171Z,48.80
2018-06-22T01:58:38.395Z,49.10
2018-06-22T02:01:05.680Z,49.40
2018-06-22T02:03:32.979Z,49.60
2018-06-22T02:06:00.252Z,49.80
2018-06-22T02:08:27.586Z,49.90
2018-06-22T02:10:54.846Z,50.10
2018-06-22T02:13:22.100Z,50.50
2018-06-22T02:15:49.467Z,50.80
2018-06-22T02:20:44.158Z,51.30
2018-06-22T02:23:11.428Z,51.60
2018-06-22T02:25:38.832Z,52.50
2018-06-22T02:28:06.117Z,51.70
2018-06-22T02:30:33.419Z,52.60
2018-06-22T02:33:00.743Z,52.20
2018-06-22T02:35:28.014Z,52.10
2018-06-22T02:40:22.748Z,52.40
2018-06-22T02:42:50.069Z,52.50
2018-06-22T02:45:17.328Z,52.80
2018-06-22T02:47:44.672Z,53.00
2018-06-22T02:50:11.898Z,52.80
2018-06-22T02:55:06.388Z,53.30
2018-06-22T02:57:33.667Z,53.30
2018-06-22T03:00:00.895Z,53.70
2018-06-22T03:02:28.162Z,53.50
2018-06-22T03:04:55.476Z,53.50
2018-06-22T03:10:18.505Z,53.70
2018-06-22T03:12:46.013Z,53.90
2018-06-22T03:15:13.345Z,54.00
2018-06-22T03:17:40.650Z,54.20
2018-06-22T03:20:08.872Z,54.80
2018-06-22T03:22:36.263Z,54.50
2018-06-22T03:25:03.855Z,54.60
2018-06-22T03:27:31.365Z,56.00
2018-06-22T03:29:58.615Z,56.50
2018-06-22T03:32:26.667Z,55.70
2018-06-22T03:34:54.004Z,57.50
2018-06-22T03:39:48.506Z,55.90
2018-06-22T03:42:15.773Z,55.80
2018-06-22T03:44:43.015Z,56.50
2018-06-22T03:47:10.224Z,56.00
2018-06-22T03:52:04.942Z,56.30
2018-06-22T03:54:32.163Z,55.90
2018-06-22T03:56:59.409Z,55.70
2018-06-22T03:59:27.632Z,56.10
2018-06-22T04:01:54.917Z,55.80
2018-06-22T04:04:22.155Z,55.60
2018-06-22T04:06:49.663Z,56.00
2018-06-22T04:09:17.012Z,55.20
2018-06-22T04:11:44.311Z,55.40
2018-06-22T04:16:38.772Z,55.50
2018-06-22T04:19:05.995Z,56.20
2018-06-22T04:21:33.250Z,55.30
2018-06-22T04:24:00.481Z,55.80
2018-06-22T04:26:27.754Z,56.00
2018-06-22T04:28:54.988Z,55.80
2018-06-22T04:31:22.339Z,55.80
2018-06-22T04:36:17.096Z,55.80
2018-06-22T04:38:44.407Z,56.80
2018-06-22T04:41:11.647Z,55.80
2018-06-22T04:43:39.817Z,55.80
2018-06-22T04:46:07.059Z,56.20
2018-06-22T04:51:02.095Z,55.40
2018-06-22T04:55:56.646Z,55.50
2018-06-22T04:58:23.878Z,54.60
2018-06-22T05:00:51.133Z,54.60
2018-06-22T05:03:22.481Z,55.00
2018-06-22T05:05:49.719Z,55.10
2018-06-22T05:08:17.003Z,55.20
2018-06-22T05:10:44.279Z,55.00
2018-06-22T05:13:11.631Z,55.50
2018-06-22T05:15:38.903Z,54.80
2018-06-22T05:18:06.139Z,55.00
2018-06-22T05:20:33.432Z,55.00
2018-06-22T05:23:00.740Z,55.30
2018-06-22T05:27:55.247Z,55.80
2018-06-22T05:30:22.713Z,56.20
2018-06-22T05:32:49.968Z,56.00
2018-06-22T05:35:17.250Z,55.80
2018-06-22T05:37:44.564Z,56.30
2018-06-22T05:40:11.861Z,54.40
2018-06-22T05:42:39.153Z,54.90
2018-06-22T05:45:06.424Z,54.50
2018-06-22T05:47:33.656Z,53.50
2018-06-22T05:50:00.983Z,52.90
2018-06-22T05:52:28.211Z,54.10
2018-06-22T05:54:55.520Z,51.80
2018-06-22T05:57:22.770Z,52.40
2018-06-22T05:59:50.122Z,52.20
2018-06-22T06:04:44.632Z,51.60
2018-06-22T06:07:11.896Z,51.80
2018-06-22T06:09:39.242Z,52.10
2018-06-22T06:12:06.487Z,50.80
2018-06-22T06:14:33.796Z,50.70
2018-06-22T06:17:01.036Z,51.00
2018-06-22T06:19:28.284Z,51.60
2018-06-22T06:21:55.549Z,51.60
2018-06-22T06:24:22.839Z,50.30
2018-06-22T06:26:50.105Z,50.00
2018-06-22T06:29:17.434Z,51.20
2018-06-22T06:31:44.691Z,49.00
2018-06-22T06:34:11.968Z,49.20
2018-06-22T06:36:39.244Z,48.50
2018-06-22T06:39:07.035Z,47.40
2018-06-22T06:41:34.296Z,48.20
2018-06-22T06:44:01.593Z,48.40
2018-06-22T06:46:28.862Z,47.70
2018-06-22T06:48:56.144Z,47.40
2018-06-22T06:53:50.705Z,46.80
2018-06-22T06:56:18.055Z,47.70
2018-06-22T06:58:45.307Z,45.50
2018-06-22T07:01:12.550Z,45.40
2018-06-22T07:03:39.864Z,44.60
2018-06-22T07:08:34.503Z,43.70
2018-06-22T07:11:01.753Z,43.80
2018-06-22T07:13:29.060Z,42.60
2018-06-22T07:15:56.346Z,42.40
2018-06-22T07:18:23.640Z,42.80
2018-06-22T07:20:50.927Z,42.80
2018-06-22T07:23:18.214Z,41.90
2018-06-22T07:28:12.691Z,42.20
2018-06-22T07:30:39.969Z,42.20
2018-06-22T07:33:07.214Z,42.00
2018-06-22T07:35:34.476Z,39.30
2018-06-22T07:38:01.735Z,39.30
2018-06-22T07:40:28.967Z,38.90
2018-06-22T07:42:56.213Z,36.70
2018-06-22T07:45:23.473Z,38.00
2018-06-22T07:47:51.435Z,37.90
2018-06-22T07:52:45.970Z,38.60
2018-06-22T07:55:13.262Z,39.90
2018-06-22T07:57:40.491Z,38.10
2018-06-22T08:00:07.744Z,38.90
2018-06-22T08:05:02.326Z,39.50
2018-06-22T08:07:35.755Z,39.20
2018-06-22T08:10:05.672Z,38.60
2018-06-22T08:12:38.491Z,40.00
2018-06-22T08:15:05.763Z,41.30
2018-06-22T08:17:33.109Z,40.50
2018-06-22T08:20:00.428Z,41.40
2018-06-22T08:22:27.669Z,39.50
2018-06-22T08:24:54.960Z,40.60
2018-06-22T08:27:22.211Z,39.90
2018-06-22T08:29:50.578Z,40.80
2018-06-22T08:32:17.886Z,40.70
2018-06-22T08:34:45.419Z,37.00
2018-06-22T08:37:12.800Z,37.50
2018-06-22T08:39:40.095Z,38.10
2018-06-22T08:42:07.386Z,36.90
2018-06-22T08:44:34.813Z,35.10
2018-06-22T08:47:02.219Z,37.00
2018-06-22T08:49:29.551Z,37.70
2018-06-22T08:51:56.871Z,36.00
2018-06-22T08:54:24.111Z,34.30
2018-06-22T08:56:51.412Z,35.90
2018-06-22T08:59:20.165Z,36.10
2018-06-22T09:01:47.447Z,36.70
2018-06-22T09:04:14.663Z,36.50
2018-06-22T09:06:41.962Z,38.20
2018-06-22T09:09:09.199Z,36.70
2018-06-22T09:11:36.474Z,36.10
2018-06-22T09:14:03.739Z,36.60
2018-06-22T09:16:31.875Z,37.10
2018-06-22T09:18:59.219Z,37.80
2018-06-22T09:21:26.523Z,37.60
2018-06-22T09:23:53.887Z,37.00
2018-06-22T09:26:21.163Z,37.50
2018-06-22T09:28:48.502Z,38.20
2018-06-22T09:31:15.823Z,39.50
2018-06-22T09:33:43.394Z,38.60
2018-06-22T09:41:05.672Z,40.40
2018-06-22T09:43:32.943Z,39.30
2018-06-22T09:46:00.281Z,39.30
2018-06-22T09:48:27.705Z,40.00
2018-06-22T09:50:54.933Z,42.50
2018-06-22T09:53:22.157Z,42.30
2018-06-22T09:55:49.394Z,43.50
2018-06-22T09:58:16.681Z,43.60
2018-06-22T10:00:50.373Z,45.50
2018-06-22T10:03:18.164Z,45.10
2018-06-22T10:05:46.337Z,46.60
2018-06-22T10:08:13.553Z,48.50
2018-06-22T10:10:40.925Z,49.60
2018-06-22T10:13:08.215Z,49.50
2018-06-22T10:15:35.636Z,49.70
2018-06-22T10:18:02.978Z,50.50
2018-06-22T10:20:30.890Z,48.60
2018-06-22T10:22:58.184Z,50.40
2018-06-22T10:25:25.424Z,47.90
2018-06-22T10:27:52.683Z,48.00
2018-06-22T10:30:19.896Z,48.50
2018-06-22T10:32:47.187Z,49.00
2018-06-22T10:35:14.448Z,47.40
2018-06-22T10:37:41.781Z,47.70
2018-06-22T10:40:09.345Z,48.40
2018-06-22T10:42:36.648Z,47.30
2018-06-22T10:45:04.299Z,47.20
2018-06-22T10:47:31.616Z,47.20
2018-06-22T10:49:58.916Z,47.50
2018-06-22T10:52:27.128Z,46.40
2018-06-22T10:54:57.406Z,45.00
2018-06-22T10:57:24.884Z,44.90
2018-06-22T10:59:52.208Z,44.30
2018-06-22T11:02:19.508Z,41.80
2018-06-22T11:04:46.774Z,38.50
2018-06-22T11:07:14.049Z,35.50
2018-06-22T11:09:41.309Z,34.10
2018-06-22T11:12:08.581Z,31.60
2018-06-22T11:14:35.802Z,31.60
2018-06-22T11:17:03.124Z,36.10
2018-06-22T11:19:30.568Z,38.70
2018-06-22T11:21:57.811Z,38.50
2018-06-22T11:24:25.083Z,38.80
2018-06-22T11:31:46.840Z,38.60
2018-06-22T11:34:14.407Z,38.00
2018-06-22T11:36:41.670Z,39.90
2018-06-22T11:39:10.208Z,40.30
2018-06-22T11:41:38.271Z,39.90
2018-06-22T11:44:05.535Z,39.70
2018-06-22T11:46:34.300Z,40.80
2018-06-22T11:49:01.558Z,41.40
2018-06-22T11:51:28.871Z,42.40
2018-06-22T11:53:56.241Z,42.10
2018-06-22T11:56:23.444Z,42.20
2018-06-22T11:58:50.835Z,42.30
2018-06-22T12:01:18.107Z,41.10
2018-06-22T12:03:45.354Z,41.80
2018-06-22T12:06:12.660Z,42.10
2018-06-22T12:08:39.935Z,40.90
2018-06-22T12:11:07.209Z,40.10
2018-06-22T12:13:34.427Z,39.90
2018-06-22T12:16:02.443Z,41.40
2018-06-22T12:18:29.669Z,48.30
2018-06-22T12:20:56.898Z,52.30
2018-06-22T12:25:51.788Z,55.80
2018-06-22T12:28:19.019Z,56.40
2018-06-22T12:30:46.260Z,53.60
2018-06-22T12:33:14.588Z,55.50
2018-06-22T12:35:45.463Z,56.10
2018-06-22T12:38:12.786Z,53.00
2018-06-22T12:43:07.387Z,54.20
2018-06-22T12:45:35.544Z,51.20
2018-06-22T12:48:03.304Z,50.60
2018-06-22T12:50:30.574Z,50.20
2018-06-22T12:52:57.806Z,43.90
2018-06-22T12:55:25.030Z,42.20
2018-06-22T12:57:52.320Z,40.40
2018-06-22T13:00:19.584Z,39.50
2018-06-22T13:02:46.842Z,40.50
2018-06-22T13:05:14.280Z,41.90
2018-06-22T13:07:41.580Z,44.60
2018-06-22T13:10:08.843Z,43.10
2018-06-22T13:12:36.199Z,41.20
2018-06-22T13:15:04.147Z,42.30
2018-06-22T13:17:31.607Z,42.60
2018-06-22T13:19:59.322Z,41.90
2018-06-22T13:22:26.610Z,43.50
2018-06-22T13:27:21.123Z,46.60
2018-06-22T13:29:48.417Z,47.20
2018-06-22T13:34:42.960Z,49.50
2018-06-22T13:37:10.424Z,50.00
2018-06-22T13:39:37.720Z,49.30
2018-06-22T13:44:58.280Z,47.80
2018-06-22T13:47:25.679Z,47.60
2018-06-22T13:52:20.290Z,44.40
2018-06-22T13:54:47.651Z,42.90
2018-06-22T13:57:15.033Z,42.90
2018-06-22T13:59:42.159Z,43.70
2018-06-22T14:02:09.417Z,43.00
2018-06-22T14:04:42.315Z,42.20
2018-06-22T14:07:09.732Z,41.90
2018-06-22T14:09:37.004Z,43.10
2018-06-22T14:12:04.292Z,44.60
2018-06-22T14:14:31.553Z,44.60
2018-06-22T14:19:26.096Z,46.30
2018-06-22T14:21:53.469Z,45.90
2018-06-22T14:26:47.978Z,46.60
2018-06-22T14:31:43.029Z,45.60
2018-06-22T14:34:10.299Z,45.00
2018-06-22T14:36:37.919Z,43.00
2018-06-22T14:39:06.878Z,43.10
2018-06-22T14:44:05.353Z,45.70
2018-06-22T14:46:33.041Z,46.60
2018-06-22T14:49:01.709Z,45.30
2018-06-22T14:51:38.884Z,44.40
2018-06-22T14:54:12.002Z,44.30
2018-06-22T14:56:45.082Z,45.30
2018-06-22T14:59:18.060Z,45.70
2018-06-22T15:01:51.622Z,45.40
2018-06-22T15:04:24.580Z,46.50
2018-06-22T15:06:57.603Z,46.60
2018-06-22T15:09:24.947Z,45.90
2018-06-22T15:11:52.219Z,46.50
2018-06-22T15:14:19.492Z,51.40
2018-06-22T15:16:46.727Z,52.30
2018-06-22T15:19:13.987Z,53.10
2018-06-22T15:21:41.237Z,52.80
2018-06-22T15:24:08.532Z,54.20
2018-06-22T15:26:36.976Z,55.90
2018-06-22T15:29:04.438Z,55.00
2018-06-22T15:31:31.991Z,55.00
2018-06-22T15:34:04.847Z,55.20
2018-06-22T15:36:37.747Z,54.00
2018-06-22T15:39:12.862Z,53.10
2018-06-22T15:41:45.972Z,52.60
2018-06-22T15:44:18.921Z,52.50
2018-06-22T15:46:51.867Z,52.20
2018-06-22T15:49:24.773Z,48.20
2018-06-22T15:51:58.521Z,50.40
2018-06-22T15:54:31.876Z,49.30
2018-06-22T15:56:59.176Z,49.90
2018-06-22T15:59:26.611Z,47.90
2018-06-22T16:01:58.577Z,47.50
2018-06-22T16:04:25.867Z,46.80
2018-06-22T16:06:53.351Z,46.20
2018-06-22T16:09:20.607Z,45.40
2018-06-22T16:11:47.944Z,44.70
2018-06-22T16:14:22.212Z,46.30
2018-06-22T16:17:56.695Z,44.90
2018-06-22T16:23:07.253Z,47.50
2018-06-22T16:25:40.282Z,46.80
2018-06-22T16:28:08.144Z,46.80
2018-06-22T16:30:36.320Z,46.70
2018-06-22T16:33:03.664Z,45.50
2018-06-22T16:35:30.936Z,46.20
2018-06-22T16:37:58.295Z,45.60
2018-06-22T16:40:25.611Z,44.50
2018-06-22T16:42:52.908Z,45.90
2018-06-22T16:47:47.584Z,45.90
2018-06-22T16:50:14.882Z,45.20
2018-06-22T16:52:42.502Z,43.50
2018-06-22T16:55:10.576Z,43.70
2018-06-22T16:57:37.941Z,41.30
2018-06-22T17:00:05.842Z,41.60
2018-06-22T17:02:39.534Z,41.50
2018-06-22T17:05:07.228Z,41.40
2018-06-22T17:07:40.077Z,42.00
2018-06-22T17:10:12.971Z,41.20
2018-06-22T17:12:49.741Z,41.60
2018-06-22T17:15:34.117Z,42.30
2018-06-22T17:18:07.391Z,41.70
2018-06-22T17:20:34.704Z,42.90
2018-06-22T17:23:02.405Z,43.40
2018-06-22T17:25:29.832Z,44.40
2018-06-22T17:27:57.176Z,44.00
2018-06-22T17:35:44.472Z,44.60
2018-06-22T17:38:11.871Z,43.30
2018-06-22T17:40:39.119Z,44.60
2018-06-22T17:43:06.444Z,44.60
2018-06-22T17:45:33.748Z,44.30
2018-06-22T17:48:04.754Z,44.20
2018-06-22T17:50:32.340Z,44.20
2018-06-22T17:52:59.920Z,44.30
2018-06-22T17:55:27.496Z,44.60
2018-06-22T17:57:54.768Z,44.60
2018-06-22T18:00:27.660Z,44.80
2018-06-22T18:03:02.972Z,45.50
2018-06-22T18:05:37.356Z,45.20
2018-06-22T18:08:09.209Z,46.00
2018-06-22T18:13:09.539Z,45.40
2018-06-22T18:15:36.824Z,45.30
2018-06-22T18:18:04.215Z,44.80
2018-06-22T18:20:31.636Z,44.40
2018-06-22T18:27:53.407Z,45.60
2018-06-22T18:30:20.719Z,45.60
2018-06-22T18:32:48.007Z,45.40
2018-06-22T18:35:18.596Z,45.90
2018-06-22T18:37:45.899Z,45.40
2018-06-22T18:40:13.204Z,46.40
2018-06-22T18:42:40.439Z,46.70
2018-06-22T18:47:41.532Z,47.20
2018-06-22T18:50:14.688Z,46.50
2018-06-22T18:52:47.891Z,47.50
2018-06-22T18:55:20.790Z,48.00
2018-06-22T18:57:53.958Z,48.50
2018-06-22T19:00:27.023Z,48.70
2018-06-22T19:03:03.870Z,48.80
2018-06-22T19:05:31.501Z,49.00
2018-06-22T19:07:58.863Z,49.60
2018-06-22T19:10:26.274Z,49.40
2018-06-22T19:12:53.547Z,49.50
2018-06-22T19:15:20.980Z,50.10
2018-06-22T19:17:48.424Z,50.60
2018-06-22T19:20:15.924Z,50.70
2018-06-22T19:22:46.030Z,51.30
2018-06-22T19:25:13.376Z,51.10
2018-06-22T19:27:40.727Z,50.70
2018-06-22T19:30:09.582Z,51.80
2018-06-22T19:32:38.211Z,52.10
2018-06-22T19:35:10.455Z,52.20
2018-06-22T19:40:05.429Z,52.70
2018-06-22T19:42:33.744Z,52.80
2018-06-22T19:45:06.804Z,52.80
2018-06-22T19:47:39.861Z,53.00
2018-06-22T19:50:13.164Z,52.70
2018-06-22T19:52:46.053Z,53.00
2018-06-22T19:55:13.551Z,52.70
2018-06-22T19:57:45.918Z,52.60
2018-06-22T20:00:13.312Z,53.10
2018-06-22T20:05:08.039Z,53.10
2018-06-22T20:07:35.469Z,53.50
2018-06-22T20:10:03.090Z,53.00
2018-06-22T20:17:27.593Z,52.50
2018-06-22T20:19:56.846Z,52.60
2018-06-22T20:22:24.236Z,52.30
2018-06-22T20:24:57.252Z,51.50
2018-06-22T20:27:25.008Z,52.60
2018-06-22T20:29:52.367Z,52.70
2018-06-22T20:32:19.904Z,52.60
2018-06-22T20:34:53.385Z,52.90
2018-06-22T20:37:26.506Z,52.80
2018-06-22T20:39:59.525Z,52.80
2018-06-22T20:42:32.944Z,52.90
2018-06-22T20:45:05.943Z,52.70
2018-06-22T20:47:38.925Z,53.40
2018-06-22T20:50:11.960Z,53.60
2018-06-22T20:52:39.287Z,53.20
2018-06-22T20:55:06.671Z,53.90
2018-06-22T20:57:33.976Z,53.80
2018-06-22T21:00:01.256Z,53.90
2018-06-22T21:02:28.495Z,54.10
2018-06-22T21:04:55.883Z,54.10
2018-06-22T21:09:50.539Z,54.20
2018-06-22T21:12:26.252Z,54.30
2018-06-22T21:14:45.148Z,54.70
2018-06-22T21:17:12.444Z,54.50
2018-06-22T21:19:39.732Z,54.50
2018-06-22T21:22:09.988Z,54.80
2018-06-22T21:24:38.155Z,54.80
2018-06-22T21:27:11.416Z,55.40
2018-06-22T21:29:44.321Z,55.20
2018-06-22T21:32:17.490Z,55.30
2018-06-22T21:34:50.435Z,55.30
2018-06-22T21:37:23.336Z,55.70
2018-06-22T21:39:50.701Z,55.90
2018-06-22T21:44:45.431Z,55.20
2018-06-22T21:47:12.795Z,55.50
2018-06-22T21:49:40.368Z,55.30
2018-06-22T21:52:07.816Z,54.00
2018-06-22T21:57:02.731Z,55.40
2018-06-22T21:59:30.032Z,55.30
2018-06-22T22:01:57.875Z,56.30
2018-06-22T22:04:25.255Z,55.20
2018-06-22T22:06:52.552Z,55.10
2018-06-22T22:09:20.052Z,55.60
2018-06-22T22:11:52.609Z,54.80
2018-06-22T22:14:20.848Z,55.10
2018-06-22T22:21:43.123Z,55.60
2018-06-22T22:24:12.263Z,55.00
2018-06-22T22:26:39.744Z,55.20
2018-06-22T22:29:08.100Z,55.50
2018-06-22T22:31:37.820Z,56.40
2018-06-22T22:34:06.161Z,55.50
2018-06-22T22:36:33.439Z,55.10
2018-06-22T22:39:01.523Z,54.90
2018-06-22T22:41:28.851Z,55.30
2018-06-22T22:43:56.133Z,55.40
2018-06-22T22:46:23.994Z,55.10
2018-06-22T22:48:51.301Z,54.90
2018-06-22T22:51:18.611Z,55.10
2018-06-22T22:53:45.903Z,53.80
2018-06-22T22:56:13.159Z,54.20
2018-06-22T22:58:42.628Z,54.60
2018-06-22T23:01:12.881Z,55.10
2018-06-22T23:03:40.285Z,55.10
2018-06-22T23:06:09.719Z,56.10
2018-06-22T23:08:48.231Z,56.50
2018-06-22T23:11:15.695Z,55.40
2018-06-22T23:13:43.152Z,53.90
2018-06-22T23:16:10.475Z,55.70
2018-06-22T23:18:37.832Z,55.40
2018-06-22T23:21:05.348Z,55.70
2018-06-22T23:23:40.517Z,55.70
2018-06-22T23:26:09.919Z,55.60
2018-06-22T23:28:37.290Z,55.10
2018-06-22T23:31:05.652Z,55.10
2018-06-22T23:33:35.636Z,55.70
2018-06-22T23:36:05.666Z,56.00
2018-06-22T23:38:33.464Z,57.40
2018-06-22T23:41:02.162Z,57.00
2018-06-22T23:43:31.091Z,55.20
2018-06-22T23:45:58.348Z,56.30
2018-06-22T23:48:26.252Z,55.80
2018-06-22T23:50:53.621Z,55.30
2018-06-22T23:53:21.033Z,56.70
2018-06-22T23:55:48.448Z,57.50
2018-06-22T23:58:20.077Z,56.70
